Aérodrome :
LOGIN :

S'inscrire | Disclaimer

   EN    FR    IT 

 










Légende :    VFR   VFR Marginal   IFR   IFR Intensif   IFR Très Intensif
Visi : 
Plafond : 
>= 8 km
>= 3000ft
5 à 8 km
1000 à 3000 ft
1500m à 5 km
500 à 1000 ft
800 à 1500m
200 à 500 ft
< 800m
< 200 ft
Symboles :   Orages  Brouillard  Fortes neiges  Fortes précipitations  Vent > 20 kt
SIGMETs :   Divers  Orages  Givrage  Turbulence  Onde Orograph.  Cendres Volcan.






- Altitude de l'aérodrome : 1947 ft
- Code IATA : OBF


EDMO - Oberpfaffenhofen

DERNIER METAR :
  • 232150Z AUTO 18003KT 140V200 5000 // OVC005/// M01/M02 Q1025

METARs EXPIRÉS :
  • 232120Z AUTO 15003KT 120V200 6000 // OVC006/// M01/M02 Q1025
  • 232050Z AUTO 33002KT 6000 // OVC006/// M02/M03 Q1025
  • 232020Z AUTO 00000KT 6000 // OVC006/// M01/M02 Q1025
  • 231950Z AUTO VRB02KT 6000 // OVC007/// M01/M02 Q1025
  • 231920Z AUTO 20003KT 6000 // OVC008/// M02/M02 Q1025

TAF TAF EDMO
Valide du 23 à 18h jusqu'au 24 à 03h UTC


231700Z 2318/2403 11005KT 6000 OVC007
BECMG 2318/2321 4000 BR
TEMPO 2320/2403 0700 FZFG OVC004
BECMG 2321/2323 21003KT



MET'MAP, la Météo Aéronautique d'un coup d'oeil ! - Copyright ORBIFLY Décembre 2007 - Disclaimer

ORBIFLY MET'MAP TEAM :

Programmation & Développement : Alexandra Zaïnal
Sur une idée originale de : Baudouin d'Aumeries
Assistance à la programmation : Marc-Olivier Méhu
Soutien technique & logistique : Manuel Goepfert

Contact : metmap@orbifly.com




SOURCES & CREDITS :

   NOAA